Big Piney River (Missouri), Fort Leonard Wood (06930060)

StateMissouriLatestGood (1050 cfs)
RiverBig Piney RiverRatingObservedEstimated
Updated2024-06-14 23:00 (1 hour ago)Flood - The river is flooding. Obstacles can be treacherous or deadly. The river should be avoided at this stage for casual trips and definitely for the inexperienced. Trips should be attempted only with protective gear and equipment.Flood(none)3272
Discharge1050 cfs (median: 429 cfs)High - The river is high and potentially dangerous, especially for the young and / or inexperienced. Normal stream obstacles are sometimes difficult to navigate. Extended distances can be attempted, but canoe travel may not be advisable.High(none)1575
Height3.62 feetGood - Conditions are ideal for a canoe or kayak. Boats typically will drag on fewer than one-quarter of riffles, if at all, and portages are unnecessary or rare. Normal float lengths can be attempted without a problem.Good(none)741
TrendFalling (falling over 24 hours)Low - River is low but can still be floated. Some riffles are okay but most come with significant dragging and might need a portage. Float lengths should be reduced to accommodate low flow, dragging, and portages.Low(none)419
USGSExternal icon USGS Site (External icon Duck Duck Go Maps)Poor - River is too low to float comfortably. Most or all riffles will drag or must be portaged and some obstacles (such as slick shelf rock) cause undue problems. Avoid the river at this stage for casual paddling trips.Poor(none)220

Trending Data

Plot Image

Trips for Big Piney River (Missouri), Fort Leonard Wood (06930060)

DateStartEndDistanceConditionDischargeHeightFishingDetails

A total of 0 rows are displayed.

Condition Descriptions

Fishing Conditions

Fish Species

Notes

Classic Trip List

The classic River Trips application is still available for use. It is updated with the new system using a data retrofit. It is no longer maintained. The original River Trips application is no longer updated (as of 1 Dec 2016) but can be checked for errors or for the condition of the data before it was converted to the new system.

Gauge Data Table

ObservationHeightDischargeMaximum
Discharge
Minimum
Discharge
Mean
Discharge
P05P10P20P25P50
(Median)
P75P80P90P95
2024-06-14 23:00 3.62 1050 933 (2020) 145 (2000) 439 154 190 205 261 429 542 555 817 933
2024-06-14 22:00 3.64 1060 1060 (2020) 145 (2000) 430 155 190 213 242 431 545 556 603 947
2024-06-14 21:00 3.66 1080 1060 (2020) 145 (2000) 430 155 190 213 242 431 545 556 603 947
2024-06-14 20:00 3.66 1080 1060 (2020) 145 (2000) 430 155 190 213 242 431 545 556 603 947
2024-06-14 19:00 3.68 1090 1060 (2020) 145 (2000) 430 155 190 213 242 431 545 556 603 947
2024-06-14 18:00 3.69 1100 1060 (2020) 145 (2000) 430 155 190 213 242 431 545 556 603 947
2024-06-14 17:00 3.69 1100 1060 (2020) 145 (2000) 430 155 190 213 242 431 545 556 603 947
2024-06-14 16:00 3.71 1120 1060 (2020) 145 (2000) 430 155 190 213 242 431 545 556 603 947
2024-06-14 15:00 3.70 1110 1060 (2020) 145 (2000) 430 155 190 213 242 431 545 556 603 947
2024-06-14 14:00 3.74 1140 1060 (2020) 145 (2000) 430 155 190 213 242 431 545 556 603 947
2024-06-14 13:00 3.75 1150 1060 (2020) 145 (2000) 430 155 190 213 242 431 545 556 603 947
2024-06-14 12:00 3.75 1150 1060 (2020) 145 (2000) 430 155 190 213 242 431 545 556 603 947
2024-06-14 11:00 3.78 1170 1060 (2020) 145 (2000) 430 155 190 213 242 431 545 556 603 947
2024-06-14 10:00 3.79 1180 1060 (2020) 145 (2000) 430 155 190 213 242 431 545 556 603 947
2024-06-14 09:00 3.80 1190 1060 (2020) 145 (2000) 430 155 190 213 242 431 545 556 603 947
2024-06-14 08:00 3.82 1200 1060 (2020) 145 (2000) 430 155 190 213 242 431 545 556 603 947
2024-06-14 07:00 3.82 1200 1060 (2020) 145 (2000) 430 155 190 213 242 431 545 556 603 947
2024-06-14 06:00 3.83 1210 1060 (2020) 145 (2000) 430 155 190 213 242 431 545 556 603 947
2024-06-14 05:00 3.85 1230 1060 (2020) 145 (2000) 430 155 190 213 242 431 545 556 603 947
2024-06-14 04:00 3.85 1230 1060 (2020) 145 (2000) 430 155 190 213 242 431 545 556 603 947
2024-06-14 03:00 3.86 1240 1060 (2020) 145 (2000) 430 155 190 213 242 431 545 556 603 947
2024-06-14 02:00 3.88 1250 1060 (2020) 145 (2000) 430 155 190 213 242 431 545 556 603 947
2024-06-14 01:00 3.89 1260 1060 (2020) 145 (2000) 430 155 190 213 242 431 545 556 603 947
2024-06-14 00:00 3.92 1290 1060 (2020) 145 (2000) 430 155 190 213 242 431 545 556 603 947
2024-06-13 23:00 3.93 1300 1060 (2020) 145 (2000) 430 155 190 213 242 431 545 556 603 947
2024-06-13 22:00 3.94 1300 1270 (2020) 142 (2000) 451 156 198 220 248 432 557 569 684 1140
2024-06-13 21:00 3.96 1320 1270 (2020) 142 (2000) 451 156 198 220 248 432 557 569 684 1140
2024-06-13 20:00 3.98 1340 1270 (2020) 142 (2000) 451 156 198 220 248 432 557 569 684 1140
2024-06-13 19:00 3.99 1350 1270 (2020) 142 (2000) 451 156 198 220 248 432 557 569 684 1140
2024-06-13 18:00 4.01 1370 1270 (2020) 142 (2000) 451 156 198 220 248 432 557 569 684 1140
2024-06-13 17:00 4.04 1390 1270 (2020) 142 (2000) 451 156 198 220 248 432 557 569 684 1140
2024-06-13 16:00 4.05 1400 1270 (2020) 142 (2000) 451 156 198 220 248 432 557 569 684 1140
2024-06-13 15:00 4.07 1420 1270 (2020) 142 (2000) 451 156 198 220 248 432 557 569 684 1140
2024-06-13 14:00 4.09 1440 1270 (2020) 142 (2000) 451 156 198 220 248 432 557 569 684 1140
2024-06-13 13:00 4.10 1440 1270 (2020) 142 (2000) 451 156 198 220 248 432 557 569 684 1140
2024-06-13 12:00 4.12 1460 1270 (2020) 142 (2000) 451 156 198 220 248 432 557 569 684 1140
2024-06-13 11:00 4.13 1470 1270 (2020) 142 (2000) 451 156 198 220 248 432 557 569 684 1140
2024-06-13 10:00 4.14 1480 1270 (2020) 142 (2000) 451 156 198 220 248 432 557 569 684 1140
2024-06-13 09:00 4.19 1530 1270 (2020) 142 (2000) 451 156 198 220 248 432 557 569 684 1140
2024-06-13 08:00 4.20 1530 1270 (2020) 142 (2000) 451 156 198 220 248 432 557 569 684 1140
2024-06-13 07:00 4.21 1540 1270 (2020) 142 (2000) 451 156 198 220 248 432 557 569 684 1140
2024-06-13 06:00 4.24 1570 1270 (2020) 142 (2000) 451 156 198 220 248 432 557 569 684 1140
2024-06-13 05:00 4.26 1590 1270 (2020) 142 (2000) 451 156 198 220 248 432 557 569 684 1140
2024-06-13 04:00 4.28 1610 1270 (2020) 142 (2000) 451 156 198 220 248 432 557 569 684 1140
2024-06-13 03:00 4.29 1620 1270 (2020) 142 (2000) 451 156 198 220 248 432 557 569 684 1140
2024-06-13 02:00 4.32 1650 1270 (2020) 142 (2000) 451 156 198 220 248 432 557 569 684 1140
2024-06-13 01:00 4.36 1690 1270 (2020) 142 (2000) 451 156 198 220 248 432 557 569 684 1140
2024-06-13 00:00 4.37 1700 1270 (2020) 142 (2000) 451 156 198 220 248 432 557 569 684 1140
2024-06-12 23:00 4.39 1720 1270 (2020) 142 (2000) 451 156 198 220 248 432 557 569 684 1140
2024-06-12 22:00 4.42 1750 1690 (2020) 142 (2000) 486 155 203 227 261 445 580 593 807 1500
2024-06-12 21:00 4.45 1780 1690 (2020) 142 (2000) 486 155 203 227 261 445 580 593 807 1500
2024-06-12 20:00 4.49 1820 1690 (2020) 142 (2000) 486 155 203 227 261 445 580 593 807 1500
2024-06-12 19:00 4.51 1840 1690 (2020) 142 (2000) 486 155 203 227 261 445 580 593 807 1500
2024-06-12 18:00 4.53 1860 1690 (2020) 142 (2000) 486 155 203 227 261 445 580 593 807 1500
2024-06-12 17:00 4.58 1920 1690 (2020) 142 (2000) 486 155 203 227 261 445 580 593 807 1500
2024-06-12 16:00 4.61 1950 1690 (2020) 142 (2000) 486 155 203 227 261 445 580 593 807 1500
2024-06-12 15:00 4.65 1990 1690 (2020) 142 (2000) 486 155 203 227 261 445 580 593 807 1500
2024-06-12 14:00 4.70 2040 1690 (2020) 142 (2000) 486 155 203 227 261 445 580 593 807 1500
2024-06-12 13:00 4.71 2050 1690 (2020) 142 (2000) 486 155 203 227 261 445 580 593 807 1500
2024-06-12 12:00 4.76 2100 1690 (2020) 142 (2000) 486 155 203 227 261 445 580 593 807 1500
2024-06-12 11:00 4.79 2140 1690 (2020) 142 (2000) 486 155 203 227 261 445 580 593 807 1500
2024-06-12 10:00 4.82 2170 1690 (2020) 142 (2000) 486 155 203 227 261 445 580 593 807 1500
2024-06-12 09:00 4.86 2210 1690 (2020) 142 (2000) 486 155 203 227 261 445 580 593 807 1500
2024-06-12 08:00 4.91 2270 1690 (2020) 142 (2000) 486 155 203 227 261 445 580 593 807 1500
2024-06-12 07:00 4.94 2300 1690 (2020) 142 (2000) 486 155 203 227 261 445 580 593 807 1500
2024-06-12 06:00 4.98 2350 1690 (2020) 142 (2000) 486 155 203 227 261 445 580 593 807 1500
2024-06-12 05:00 5.02 2390 1690 (2020) 142 (2000) 486 155 203 227 261 445 580 593 807 1500
2024-06-12 04:00 5.07 2450 1690 (2020) 142 (2000) 486 155 203 227 261 445 580 593 807 1500
2024-06-12 03:00 5.11 2480 1690 (2020) 142 (2000) 486 155 203 227 261 445 580 593 807 1500
2024-06-12 02:00 5.15 2520 1690 (2020) 142 (2000) 486 155 203 227 261 445 580 593 807 1500
2024-06-12 01:00 5.20 2560 1690 (2020) 142 (2000) 486 155 203 227 261 445 580 593 807 1500
2024-06-12 00:00 5.25 2610 1690 (2020) 142 (2000) 486 155 203 227 261 445 580 593 807 1500
2024-06-11 23:00 5.30 2650 1690 (2020) 142 (2000) 486 155 203 227 261 445 580 593 807 1500
2024-06-11 22:00 5.35 2700 2550 (2020) 141 (2000) 546 152 188 230 276 481 613 617 1010 2210
2024-06-11 21:00 5.41 2760 2550 (2020) 141 (2000) 546 152 188 230 276 481 613 617 1010 2210
2024-06-11 20:00 5.46 2800 2550 (2020) 141 (2000) 546 152 188 230 276 481 613 617 1010 2210
2024-06-11 19:00 5.53 2870 2550 (2020) 141 (2000) 546 152 188 230 276 481 613 617 1010 2210
2024-06-11 18:00 5.58 2920 2550 (2020) 141 (2000) 546 152 188 230 276 481 613 617 1010 2210
2024-06-11 17:00 5.65 2990 2550 (2020) 141 (2000) 546 152 188 230 276 481 613 617 1010 2210
2024-06-11 16:00 5.72 3050 2550 (2020) 141 (2000) 546 152 188 230 276 481 613 617 1010 2210
2024-06-11 15:00 5.80 3120 2550 (2020) 141 (2000) 546 152 188 230 276 481 613 617 1010 2210
2024-06-11 14:00 5.87 3180 2550 (2020) 141 (2000) 546 152 188 230 276 481 613 617 1010 2210
2024-06-11 13:00 5.95 3250 2550 (2020) 141 (2000) 546 152 188 230 276 481 613 617 1010 2210
2024-06-11 12:00 6.03 3320 2550 (2020) 141 (2000) 546 152 188 230 276 481 613 617 1010 2210
2024-06-11 11:00 6.12 3410 2550 (2020) 141 (2000) 546 152 188 230 276 481 613 617 1010 2210
2024-06-11 10:00 6.22 3500 2550 (2020) 141 (2000) 546 152 188 230 276 481 613 617 1010 2210
2024-06-11 09:00 6.30 3570 2550 (2020) 141 (2000) 546 152 188 230 276 481 613 617 1010 2210
2024-06-11 08:00 6.42 3690 2550 (2020) 141 (2000) 546 152 188 230 276 481 613 617 1010 2210
2024-06-11 07:00 6.53 3800 2550 (2020) 141 (2000) 546 152 188 230 276 481 613 617 1010 2210
2024-06-11 06:00 6.65 3910 2550 (2020) 141 (2000) 546 152 188 230 276 481 613 617 1010 2210
2024-06-11 05:00 6.78 4040 2550 (2020) 141 (2000) 546 152 188 230 276 481 613 617 1010 2210
2024-06-11 04:00 6.94 4210 2550 (2020) 141 (2000) 546 152 188 230 276 481 613 617 1010 2210
2024-06-11 03:00 7.14 4420 2550 (2020) 141 (2000) 546 152 188 230 276 481 613 617 1010 2210
2024-06-11 02:00 7.43 4720 2550 (2020) 141 (2000) 546 152 188 230 276 481 613 617 1010 2210
2024-06-11 01:00 7.93 5220 2550 (2020) 141 (2000) 546 152 188 230 276 481 613 617 1010 2210
2024-06-11 00:00 8.82 6190 2550 (2020) 141 (2000) 546 152 188 230 276 481 613 617 1010 2210
2024-06-10 23:00 10.11 7770 2550 (2020) 141 (2000) 546 152 188 230 276 481 613 617 1010 2210
2024-06-10 22:00 11.67 10100 5180 (2020) 137 (2000) 642 149 188 230 261 477 639 660 764 4080
2024-06-10 21:00 13.00 12600 5180 (2020) 137 (2000) 642 149 188 230 261 477 639 660 764 4080
2024-06-10 20:00 13.92 14600 5180 (2020) 137 (2000) 642 149 188 230 261 477 639 660 764 4080
2024-06-10 19:00 14.54 16000 5180 (2020) 137 (2000) 642 149 188 230 261 477 639 660 764 4080
2024-06-10 18:00 14.91 16800 5180 (2020) 137 (2000) 642 149 188 230 261 477 639 660 764 4080
2024-06-10 17:00 15.09 17300 5180 (2020) 137 (2000) 642 149 188 230 261 477 639 660 764 4080
2024-06-10 16:00 15.11 17300 5180 (2020) 137 (2000) 642 149 188 230 261 477 639 660 764 4080
2024-06-10 15:00 15.01 17100 5180 (2020) 137 (2000) 642 149 188 230 261 477 639 660 764 4080
2024-06-10 14:00 14.84 16700 5180 (2020) 137 (2000) 642 149 188 230 261 477 639 660 764 4080
2024-06-10 13:00 14.60 16100 5180 (2020) 137 (2000) 642 149 188 230 261 477 639 660 764 4080
2024-06-10 12:00 14.26 15300 5180 (2020) 137 (2000) 642 149 188 230 261 477 639 660 764 4080
2024-06-10 11:00 13.85 14400 5180 (2020) 137 (2000) 642 149 188 230 261 477 639 660 764 4080
2024-06-10 10:00 13.43 13500 5180 (2020) 137 (2000) 642 149 188 230 261 477 639 660 764 4080
2024-06-10 09:00 12.99 12600 5180 (2020) 137 (2000) 642 149 188 230 261 477 639 660 764 4080
2024-06-10 08:00 12.55 11700 5180 (2020) 137 (2000) 642 149 188 230 261 477 639 660 764 4080
2024-06-10 07:00 12.15 11000 5180 (2020) 137 (2000) 642 149 188 230 261 477 639 660 764 4080
2024-06-10 06:00 11.78 10300 5180 (2020) 137 (2000) 642 149 188 230 261 477 639 660 764 4080
2024-06-10 05:00 11.41 9670 5180 (2020) 137 (2000) 642 149 188 230 261 477 639 660 764 4080
2024-06-10 04:00 11.09 9190 5180 (2020) 137 (2000) 642 149 188 230 261 477 639 660 764 4080
2024-06-10 03:00 10.78 8730 5180 (2020) 137 (2000) 642 149 188 230 261 477 639 660 764 4080
2024-06-10 02:00 10.47 8280 5180 (2020) 137 (2000) 642 149 188 230 261 477 639 660 764 4080
2024-06-10 01:00 10.20 7900 5180 (2020) 137 (2000) 642 149 188 230 261 477 639 660 764 4080
2024-06-10 00:00 9.92 7520 5180 (2020) 137 (2000) 642 149 188 230 261 477 639 660 764 4080
2024-06-09 23:00 9.70 7240 5180 (2020) 137 (2000) 642 149 188 230 261 477 639 660 764 4080
2024-06-09 22:00 9.47 6960 2610 (2020) 137 (2000) 555 149 190 238 263 472 619 732 904 2200
2024-06-09 21:00 9.24 6680 2610 (2020) 137 (2000) 555 149 190 238 263 472 619 732 904 2200
2024-06-09 20:00 8.97 6360 2610 (2020) 137 (2000) 555 149 190 238 263 472 619 732 904 2200
2024-06-09 19:00 8.65 5990 2610 (2020) 137 (2000) 555 149 190 238 263 472 619 732 904 2200
2024-06-09 18:00 8.22 5530 2610 (2020) 137 (2000) 555 149 190 238 263 472 619 732 904 2200
2024-06-09 17:00 7.73 5020 2610 (2020) 137 (2000) 555 149 190 238 263 472 619 732 904 2200
2024-06-09 16:00 7.16 4440 2610 (2020) 137 (2000) 555 149 190 238 263 472 619 732 904 2200
2024-06-09 15:00 6.50 3770 2610 (2020) 137 (2000) 555 149 190 238 263 472 619 732 904 2200
2024-06-09 14:00 5.78 3100 2610 (2020) 137 (2000) 555 149 190 238 263 472 619 732 904 2200
2024-06-09 13:00 5.22 2580 2610 (2020) 137 (2000) 555 149 190 238 263 472 619 732 904 2200
2024-06-09 12:00 4.99 2360 2610 (2020) 137 (2000) 555 149 190 238 263 472 619 732 904 2200
2024-06-09 11:00 4.83 2180 2610 (2020) 137 (2000) 555 149 190 238 263 472 619 732 904 2200
2024-06-09 10:00 4.45 1780 2610 (2020) 137 (2000) 555 149 190 238 263 472 619 732 904 2200
2024-06-09 09:00 3.91 1280 2610 (2020) 137 (2000) 555 149 190 238 263 472 619 732 904 2200
2024-06-09 08:00 3.43 913 2610 (2020) 137 (2000) 555 149 190 238 263 472 619 732 904 2200
2024-06-09 07:00 3.22 779 2610 (2020) 137 (2000) 555 149 190 238 263 472 619 732 904 2200
2024-06-09 06:00 3.09 704 2610 (2020) 137 (2000) 555 149 190 238 263 472 619 732 904 2200
2024-06-09 05:00 2.99 650 2610 (2020) 137 (2000) 555 149 190 238 263 472 619 732 904 2200
2024-06-09 04:00 2.91 610 2610 (2020) 137 (2000) 555 149 190 238 263 472 619 732 904 2200
2024-06-09 03:00 2.88 595 2610 (2020) 137 (2000) 555 149 190 238 263 472 619 732 904 2200
2024-06-09 02:00 2.87 590 2610 (2020) 137 (2000) 555 149 190 238 263 472 619 732 904 2200
2024-06-09 01:00 2.86 585 2610 (2020) 137 (2000) 555 149 190 238 263 472 619 732 904 2200
2024-06-09 00:00 2.85 580 2610 (2020) 137 (2000) 555 149 190 238 263 472 619 732 904 2200
2024-06-08 23:00 2.84 575 2610 (2020) 137 (2000) 555 149 190 238 263 472 619 732 904 2200
2024-06-08 22:00 2.85 580 1070 (2016) 138 (2000) 506 151 192 246 269 455 675 783 856 1020
2024-06-08 21:00 2.87 590 1070 (2016) 138 (2000) 506 151 192 246 269 455 675 783 856 1020
2024-06-08 20:00 2.82 566 1070 (2016) 138 (2000) 506 151 192 246 269 455 675 783 856 1020
2024-06-08 19:00 2.82 566 1070 (2016) 138 (2000) 506 151 192 246 269 455 675 783 856 1020
2024-06-08 18:00 2.84 575 1070 (2016) 138 (2000) 506 151 192 246 269 455 675 783 856 1020
2024-06-08 17:00 2.84 575 1070 (2016) 138 (2000) 506 151 192 246 269 455 675 783 856 1020
2024-06-08 16:00 2.84 575 1070 (2016) 138 (2000) 506 151 192 246 269 455 675 783 856 1020
2024-06-08 15:00 2.85 580 1070 (2016) 138 (2000) 506 151 192 246 269 455 675 783 856 1020
2024-06-08 14:00 2.86 585 1070 (2016) 138 (2000) 506 151 192 246 269 455 675 783 856 1020
2024-06-08 13:00 2.87 590 1070 (2016) 138 (2000) 506 151 192 246 269 455 675 783 856 1020
2024-06-08 12:00 2.86 585 1070 (2016) 138 (2000) 506 151 192 246 269 455 675 783 856 1020
2024-06-08 11:00 2.87 590 1070 (2016) 138 (2000) 506 151 192 246 269 455 675 783 856 1020
2024-06-08 10:00 2.87 590 1070 (2016) 138 (2000) 506 151 192 246 269 455 675 783 856 1020
2024-06-08 09:00 2.88 595 1070 (2016) 138 (2000) 506 151 192 246 269 455 675 783 856 1020
2024-06-08 08:00 2.89 600 1070 (2016) 138 (2000) 506 151 192 246 269 455 675 783 856 1020
2024-06-08 07:00 2.89 600 1070 (2016) 138 (2000) 506 151 192 246 269 455 675 783 856 1020
2024-06-08 06:00 2.91 610 1070 (2016) 138 (2000) 506 151 192 246 269 455 675 783 856 1020
2024-06-08 05:00 2.90 605 1070 (2016) 138 (2000) 506 151 192 246 269 455 675 783 856 1020
2024-06-08 04:00 2.91 610 1070 (2016) 138 (2000) 506 151 192 246 269 455 675 783 856 1020
2024-06-08 03:00 2.89 600 1070 (2016) 138 (2000) 506 151 192 246 269 455 675 783 856 1020
2024-06-08 02:00 2.91 610 1070 (2016) 138 (2000) 506 151 192 246 269 455 675 783 856 1020
2024-06-08 01:00 2.91 610 1070 (2016) 138 (2000) 506 151 192 246 269 455 675 783 856 1020
2024-06-08 00:00 2.91 610 1070 (2016) 138 (2000) 506 151 192 246 269 455 675 783 856 1020
2024-06-07 23:00 2.92 615 1070 (2016) 138 (2000) 506 151 192 246 269 455 675 783 856 1020

A total of 169 rows are displayed for years 2000 through 2023.